Aviation Digital Data Service (ADDS)

Output produced by METARs form (1220 UTC 26 March 2019)
found at http://www.aviationweather.gov/metar/data/
 
TAF LOXA 261115Z 2612/2621 VRB03KT 9999 FEW040 SCT050 
     TEMPO 2612/2621 FEW040 BKN050 
     TEMPO 2612/2617 24012G25KT
       
LOWG 261150Z 33010KT 290V010 9999 FEW060 11/M06 Q1023 NOSIG
TAF LOWG 261115Z 2612/2712 35004KT 9999 FEW060 SCT100 TX11/2613Z TN01/2705Z 
     TEMPO 2612/2617 35015G25KT
       
LOWI 261150Z VRB06KT 9999 SCT040 BKN060 07/M03 Q1027 NOSIG
TAF LOWI 261115Z 2612/2712 09006KT 9999 SCT030 BKN070 TX08/2613Z TN01/2706Z 
     PROB40 
     TEMPO 2612/2619 04015G25KT 
     TEMPO 2619/2707 4000 -SN BKN013
       
LOWK 261150Z 04011G28KT 300V080 9999 FEW050 11/M09 Q1022 NOSIG
TAF LOWK 261115Z 2612/2712 35004KT 9999 FEW060 TX12/2614Z TN00/2704Z 
     TEMPO 2612/2618 02015G25KT 
     BECMG 2709/2711 01008G18KT
       
LOWL 261150Z 27015KT 9999 SCT034 BKN060 07/M01 Q1027 NOSIG
TAF LOWL 261115Z 2612/2712 27010KT 9999 SCT025 BKN050 TX07/2712Z TN04/2700Z 
     TEMPO 2612/2617 29015G25KT SCT050 
     TEMPO 2700/2709 26005KT -RA BKN025
       
LOWS 261150Z 34010KT 9999 FEW040 SCT050 BKN060 06/M03 Q1028 NOSIG
TAF LOWS 261115Z 2612/2712 32006KT 9999 SCT025 BKN060 TX06/2613Z TN02/2706Z 
     TEMPO 2612/2617 31012KT 
     TEMPO 2621/2712 25006KT -SHRA SCT014 BKN025 
     PROB40 
     TEMPO 2700/2706 29010KT 3500 SHRASN FEW008 BKN014
       
LOWW 261150Z 32016KT 9999 FEW042 BKN057 09/M03 Q1024 NOSIG
TAF LOWW 261115Z 2612/2718 33015G25KT CAVOK TX10/2715Z TN04/2703Z 
     PROB40 
     TEMPO 2612/2616 33020G30KT 9999 SCT050 
     BECMG 2616/2619 33010KT 9999 BKN040 
     TEMPO 2708/2715 34015G25KT FEW060
       
TAF LOXT 261115Z 2612/2621 29010KT 9999 FEW030 SCT070 
     TEMPO 2612/2617 29015G25KT BKN040
       
LOAV 261200Z 30012G22KT 40KM BKN035CU 09/M04
TAF LOAV 261125Z 2612/2621 31013KT 9999 BKN030 
     TEMPO 2612/2617 32020G30KT
       
LOAN 261200Z 30014G27KT 40KM FEW035CU BKN045SC
TAF LOAN 261125Z 2612/2621 30013KT 9999 FEW035 BKN045 
     TEMPO 2612/2617 32020G30KT
       
TAF LOXN 261115Z 2612/2621 32015G25KT 9999 FEW035 SCT070 
     TEMPO 2612/2616 32018G30KT BKN040 
     BECMG 2618/2620 29012KT
       
LOXZ 261150Z 05006KT 30KM FEW060CU 07/M09 Q1023 NOSIG
TAF LOXZ 261115Z 2612/2621 06009KT 9999 SCT050 
     TEMPO 2612/2615 30010G22KT